Time;durP1;ratioP1;P1;durP2;ratioP2;P2;SDS_P1;SDS_P2;PMS_P1;PMS_P2;Temp;Humidity;BMP_temperature;BMP_pressure;BME280_temperature;BME280_humidity;BME280_pressure;Samples;Min_cycle;Max_cycle;Signal;HPM_P1;HPM_P2
2022/07/02 00:01:49;;;;;;;4.47;2.20;;;;;;;18.24;54.32;102080.94;5072024;28;20498;-67
2022/07/02 00:04:18;;;;;;;6.18;2.50;;;;;;;18.21;54.43;102076.69;5066082;28;20052;-67
2022/07/02 00:06:44;;;;;;;5.00;2.58;;;;;;;18.25;54.81;102072.22;5070955;28;20086;-67
2022/07/02 00:09:10;;;;;;;5.43;2.60;;;;;;;18.17;54.84;102080.34;5068340;28;20136;-67
2022/07/02 00:11:38;;;;;;;4.65;2.60;;;;;;;18.18;55.08;102082.00;5068140;28;20108;-67
2022/07/02 00:14:04;;;;;;;4.10;2.55;;;;;;;18.15;54.88;102073.00;5070017;28;20039;-67
2022/07/02 00:16:30;;;;;;;5.97;2.78;;;;;;;18.10;54.72;102072.97;5079507;28;20024;-67
2022/07/02 00:18:55;;;;;;;6.38;2.75;;;;;;;18.08;54.77;102075.25;5075405;28;20054;-67
2022/07/02 00:21:22;;;;;;;4.10;2.75;;;;;;;18.06;55.00;102073.81;5069596;28;20032;-67
2022/07/02 00:23:47;;;;;;;5.68;2.90;;;;;;;18.03;54.54;102075.19;5070953;28;20020;-67
2022/07/02 00:26:17;;;;;;;4.45;2.70;;;;;;;18.02;54.94;102067.88;5068960;28;21644;-67
2022/07/02 00:28:52;;;;;;;12.18;2.80;;;;;;;17.99;55.14;102070.41;5069717;28;20063;-67
2022/07/02 00:31:18;;;;;;;6.55;2.65;;;;;;;17.91;55.74;102075.41;5069495;28;20487;-67
2022/07/02 00:33:44;;;;;;;5.32;2.75;;;;;;;17.91;55.57;102071.75;5070199;28;20033;-67
2022/07/02 00:36:21;;;;;;;5.15;2.65;;;;;;;17.88;55.72;102075.13;5069025;28;20067;-67
2022/07/02 00:38:47;;;;;;;6.15;2.65;;;;;;;17.85;55.55;102075.69;5069087;28;20670;-67
2022/07/02 00:41:12;;;;;;;5.93;2.80;;;;;;;17.83;56.08;102075.94;5068764;28;20127;-67
2022/07/02 00:43:38;;;;;;;6.82;2.60;;;;;;;17.84;55.74;102082.38;5070264;28;20036;-67
2022/07/02 00:46:03;;;;;;;6.38;2.75;;;;;;;17.76;56.21;102080.94;5080062;28;20044;-67
2022/07/02 00:48:29;;;;;;;5.72;2.80;;;;;;;17.75;56.19;102084.03;5070628;28;20024;-67
2022/07/02 00:50:54;;;;;;;5.65;2.88;;;;;;;17.75;56.16;102072.81;5070385;28;20134;-67
2022/07/02 00:53:20;;;;;;;5.00;2.67;;;;;;;17.70;56.08;102076.41;5070906;28;20056;-67
2022/07/02 00:55:45;;;;;;;3.92;2.53;;;;;;;17.69;56.27;102073.88;5070166;28;20407;-67
2022/07/02 00:58:10;;;;;;;4.32;2.50;;;;;;;17.65;55.57;102073.56;5070337;28;20038;-68
2022/07/02 01:00:36;;;;;;;5.90;2.65;;;;;;;17.65;56.46;102067.94;5072118;28;21884;-67
2022/07/02 01:03:03;;;;;;;3.58;2.72;;;;;;;17.61;56.20;102066.81;5071152;28;20053;-67
2022/07/02 01:05:29;;;;;;;4.28;2.80;;;;;;;17.55;56.78;102068.72;5068770;28;20728;-67
2022/07/02 01:10:47;;;;;;;7.05;3.13;;;;;;;17.53;56.49;102064.50;5072778;28;20098;-67
2022/07/02 01:13:14;;;;;;;4.25;2.50;;;;;;;17.53;56.38;102068.16;5070932;28;20035;-67
2022/07/02 01:15:40;;;;;;;4.43;2.40;;;;;;;17.46;56.42;102064.72;5085670;28;20036;-67
2022/07/02 01:18:06;;;;;;;11.63;2.30;;;;;;;17.41;56.89;102062.75;5095619;28;20378;-67
2022/07/02 01:20:31;;;;;;;6.15;2.45;;;;;;;17.42;56.65;102058.81;5068222;28;20086;-67
2022/07/02 01:22:56;;;;;;;5.75;2.20;;;;;;;17.43;56.90;102060.50;5074059;28;20025;-67
2022/07/02 01:25:22;;;;;;;4.80;2.20;;;;;;;17.43;56.91;102065.25;5075195;28;20558;-67
2022/07/02 01:27:48;;;;;;;5.93;2.00;;;;;;;17.41;56.71;102068.34;5074133;28;20028;-67
2022/07/02 01:30:13;;;;;;;4.38;2.40;;;;;;;17.32;56.73;102060.69;5083058;28;20032;-67
2022/07/02 01:32:38;;;;;;;3.97;2.80;;;;;;;17.30;57.10;102066.59;5094825;28;20044;-67
2022/07/02 01:35:06;;;;;;;6.65;3.28;;;;;;;17.31;57.24;102065.47;5086122;28;20043;-67
2022/07/02 01:37:31;;;;;;;4.10;2.38;;;;;;;17.31;57.50;102065.47;5069657;28;20032;-67
2022/07/02 01:39:57;;;;;;;6.15;2.55;;;;;;;17.30;57.62;102066.59;5073792;28;20433;-67
2022/07/02 01:42:22;;;;;;;3.42;2.38;;;;;;;17.30;57.53;102060.97;5072994;28;20544;-67
2022/07/02 01:44:48;;;;;;;5.03;2.45;;;;;;;17.25;57.88;102065.69;5072642;28;20028;-67
2022/07/02 01:47:13;;;;;;;4.63;2.38;;;;;;;17.20;57.99;102069.28;5073078;28;20033;-67
2022/07/02 01:49:39;;;;;;;7.65;2.58;;;;;;;17.18;57.99;102069.56;5077976;28;20027;-67
2022/07/02 01:52:06;;;;;;;6.05;2.28;;;;;;;17.16;58.20;102068.13;5070880;28;20024;-67
2022/07/02 01:54:31;;;;;;;5.70;2.30;;;;;;;17.13;58.26;102072.34;5073897;28;20463;-67
2022/07/02 01:56:57;;;;;;;6.60;2.35;;;;;;;17.14;58.15;102060.00;5082519;28;20027;-67
2022/07/02 01:59:23;;;;;;;5.07;2.25;;;;;;;17.12;58.15;102069.78;5076491;28;20100;-67
2022/07/02 02:01:48;;;;;;;4.90;2.50;;;;;;;17.01;57.80;102065.19;5070613;28;20051;-67
2022/07/02 02:04:13;;;;;;;5.35;2.60;;;;;;;17.02;58.13;102061.31;5074117;28;20029;-67
2022/07/02 02:06:39;;;;;;;4.57;2.15;;;;;;;17.05;58.59;102066.34;5075295;28;20474;-67
2022/07/02 02:09:05;;;;;;;4.18;2.40;;;;;;;16.98;58.66;102063.78;5072061;28;20476;-67
2022/07/02 02:11:30;;;;;;;4.80;2.63;;;;;;;16.99;58.24;102064.63;5074151;28;20127;-67
2022/07/02 02:13:59;;;;;;;5.70;3.30;;;;;;;17.02;57.94;102061.31;5072975;28;20115;-67
2022/07/02 02:16:29;;;;;;;6.53;2.40;;;;;;;17.02;58.45;102058.50;5073185;28;20383;-67
2022/07/02 02:18:56;;;;;;;3.88;2.25;;;;;;;17.00;58.49;102058.75;5073756;28;20028;-67
2022/07/02 02:21:24;;;;;;;3.97;2.22;;;;;;;17.00;58.35;102055.09;5072505;28;20035;-67
2022/07/02 02:23:49;;;;;;;8.18;2.55;;;;;;;16.95;58.17;102057.88;5072013;28;20020;-67
2022/07/02 02:26:15;;;;;;;2.85;2.20;;;;;;;16.93;58.25;102058.97;5077133;28;20035;-67
2022/07/02 02:28:40;;;;;;;4.93;2.75;;;;;;;16.91;58.43;102055.59;5072432;28;20032;-67
2022/07/02 02:31:05;;;;;;;4.78;2.60;;;;;;;16.84;58.07;102063.38;5071577;28;20562;-66
2022/07/02 02:33:30;;;;;;;5.18;2.70;;;;;;;16.90;57.96;102067.09;5072597;28;20036;-67
2022/07/02 02:35:56;;;;;;;6.50;2.50;;;;;;;16.86;58.12;102063.97;5073379;28;20058;-67
2022/07/02 02:38:21;;;;;;;3.47;2.38;;;;;;;16.87;58.15;102059.19;5071823;28;20498;-67
2022/07/02 02:40:47;;;;;;;5.93;2.60;;;;;;;16.86;58.18;102060.31;5073036;28;20028;-67
2022/07/02 02:43:12;;;;;;;5.13;2.42;;;;;;;16.83;58.29;102058.88;5070698;28;20020;-67
2022/07/02 02:45:37;;;;;;;6.03;2.90;;;;;;;16.84;57.79;102060.56;5071142;28;20027;-67
2022/07/02 02:48:03;;;;;;;6.07;2.40;;;;;;;16.86;57.63;102060.31;5073235;28;20028;-67
2022/07/02 02:50:28;;;;;;;7.72;2.80;;;;;;;16.91;57.92;102068.78;5070781;28;20032;-67
2022/07/02 02:52:54;;;;;;;6.95;2.75;;;;;;;16.86;57.88;102068.72;5072934;28;20079;-67
2022/07/02 02:55:19;;;;;;;6.80;2.85;;;;;;;16.92;57.98;102068.50;5073278;28;20037;-67
2022/07/02 02:57:44;;;;;;;6.18;2.95;;;;;;;16.85;57.77;102070.66;5078543;28;20493;-67
2022/07/02 03:00:10;;;;;;;9.27;2.95;;;;;;;16.83;57.43;102067.28;5071000;28;20035;-67
2022/07/02 03:02:35;;;;;;;8.07;2.90;;;;;;;16.86;57.79;102066.78;5071207;28;20051;-67
2022/07/02 03:05:00;;;;;;;5.78;3.05;;;;;;;16.90;57.52;102064.28;5070749;28;20128;-67
2022/07/02 03:07:26;;;;;;;7.00;2.70;;;;;;;16.86;57.52;102061.16;5070915;28;20383;-67
2022/07/02 03:09:51;;;;;;;5.53;2.65;;;;;;;16.83;57.66;102061.69;5066793;28;20478;-67
2022/07/02 03:12:16;;;;;;;4.05;2.60;;;;;;;16.84;56.90;102063.38;5069822;28;20047;-67
2022/07/02 03:14:42;;;;;;;7.22;2.70;;;;;;;16.81;58.06;102074.28;5070503;28;20028;-67
2022/07/02 03:17:07;;;;;;;6.85;3.20;;;;;;;16.77;57.69;102075.91;5072416;28;20101;-67
2022/07/02 03:19:33;;;;;;;7.00;3.00;;;;;;;16.72;57.56;102082.28;5072042;28;20044;-67
2022/07/02 03:21:58;;;;;;;5.07;2.90;;;;;;;16.73;57.56;102084.00;5072949;28;20464;-67
2022/07/02 03:24:24;;;;;;;7.05;3.05;;;;;;;16.71;57.64;102080.59;5070451;28;20042;-67
2022/07/02 03:26:49;;;;;;;7.70;2.92;;;;;;;16.71;58.15;102077.81;5068715;28;20024;-67
2022/07/02 03:29:14;;;;;;;5.72;2.72;;;;;;;16.68;58.19;102084.78;5053563;28;20548;-67
2022/07/02 03:31:39;;;;;;;6.70;2.78;;;;;;;16.69;57.39;102082.81;5084107;28;20376;-67
2022/07/02 03:34:05;;;;;;;5.47;2.50;;;;;;;16.71;57.85;102089.00;5068165;28;20135;-67
2022/07/02 03:36:30;;;;;;;9.77;3.08;;;;;;;16.69;58.00;102088.41;5071663;28;20036;-67
2022/07/02 03:38:55;;;;;;;5.55;2.63;;;;;;;16.66;57.79;102091.75;5071395;28;20029;-67
2022/07/02 03:41:21;;;;;;;6.43;2.58;;;;;;;16.69;57.75;102094.03;5064493;28;20385;-67
2022/07/02 03:43:46;;;;;;;8.00;2.80;;;;;;;16.75;57.61;102101.44;5052380;28;20060;-67
2022/07/02 03:46:12;;;;;;;6.97;2.80;;;;;;;16.74;57.54;102102.53;5072291;28;20471;-67
2022/07/02 03:48:38;;;;;;;7.57;2.85;;;;;;;16.72;57.68;102104.72;5076937;28;20060;-67
2022/07/02 03:51:03;;;;;;;6.60;2.72;;;;;;;16.68;57.69;102096.00;5070979;28;20066;-67
2022/07/02 03:53:28;;;;;;;6.68;2.90;;;;;;;16.68;57.53;102095.16;5071602;28;20035;-67
2022/07/02 03:55:54;;;;;;;8.68;2.53;;;;;;;16.66;57.95;102101.03;5070136;28;20032;-67
2022/07/02 03:58:19;;;;;;;5.30;2.60;;;;;;;16.63;57.63;102100.69;5070122;28;20533;-67
2022/07/02 04:00:44;;;;;;;5.80;2.83;;;;;;;16.69;57.45;102099.63;5068896;28;20028;-67
2022/07/02 04:03:10;;;;;;;6.47;2.67;;;;;;;16.71;57.40;102100.22;5071690;28;20024;-67
2022/07/02 04:05:35;;;;;;;7.10;2.83;;;;;;;16.65;57.90;102095.66;5070220;28;20082;-67
2022/07/02 04:08:00;;;;;;;7.43;2.67;;;;;;;16.71;57.85;102099.38;5069753;28;20032;-67
2022/07/02 04:10:26;;;;;;;5.03;2.67;;;;;;;16.71;57.68;102093.78;5072100;28;20476;-67
2022/07/02 04:12:51;;;;;;;6.93;2.72;;;;;;;16.72;57.62;102101.91;5069386;28;20060;-67
2022/07/02 04:15:16;;;;;;;4.25;2.33;;;;;;;16.67;57.92;102110.28;5072915;28;20020;-67
2022/07/02 04:17:42;;;;;;;6.05;2.95;;;;;;;16.64;57.62;102110.78;5078062;28;20024;-67
2022/07/02 04:20:08;;;;;;;6.47;3.13;;;;;;;16.65;58.06;102106.88;5071709;28;20178;-67
2022/07/02 04:22:33;;;;;;;8.60;2.95;;;;;;;16.68;57.75;102103.56;5071150;28;20028;-67
2022/07/02 04:24:58;;;;;;;4.45;2.53;;;;;;;16.68;57.48;102096.00;5067860;28;20040;-67
2022/07/02 04:27:24;;;;;;;7.90;3.00;;;;;;;16.67;57.52;102105.50;5068378;28;20529;-67
2022/07/02 04:29:49;;;;;;;6.70;2.72;;;;;;;16.65;57.98;102101.28;5068184;28;20029;-67
2022/07/02 04:32:14;;;;;;;6.93;3.00;;;;;;;16.73;57.84;102103.63;5069331;28;20046;-67
2022/07/02 04:34:40;;;;;;;6.00;2.83;;;;;;;16.66;58.38;102094.53;5076271;28;20112;-67
2022/07/02 04:37:05;;;;;;;9.60;2.67;;;;;;;16.66;58.07;102105.75;5068474;28;20107;-67
2022/07/02 04:39:30;;;;;;;9.02;3.08;;;;;;;16.63;57.88;102104.34;5069564;28;20113;-67
2022/07/02 04:41:57;;;;;;;9.57;2.95;;;;;;;16.67;58.12;102105.50;5071051;28;20750;-67
2022/07/02 04:44:23;;;;;;;5.88;3.10;;;;;;;16.75;57.74;102098.63;5067860;28;20035;-67
2022/07/02 04:46:48;;;;;;;5.05;3.05;;;;;;;16.72;58.22;102098.28;5080619;28;20032;-67
2022/07/02 04:49:14;;;;;;;12.73;3.00;;;;;;;16.79;57.58;102101.75;5075210;28;20036;-67
2022/07/02 04:51:39;;;;;;;8.43;2.55;;;;;;;16.79;58.00;102096.97;5071050;28;20586;-67
2022/07/02 04:54:04;;;;;;;5.78;2.70;;;;;;;16.81;57.92;102097.53;5074362;28;20039;-67
2022/07/02 04:56:29;;;;;;;7.72;2.80;;;;;;;16.75;57.76;102095.81;5073685;28;20077;-67
2022/07/02 04:58:55;;;;;;;6.32;2.63;;;;;;;16.86;57.49;102106.03;5072582;28;20039;-67
2022/07/02 05:01:23;;;;;;;6.50;2.80;;;;;;;16.82;57.79;102102.06;5079111;28;20024;-67
2022/07/02 05:03:49;;;;;;;6.78;2.80;;;;;;;16.90;57.57;102109.16;5073336;28;20024;-67
2022/07/02 05:06:15;;;;;;;8.55;2.70;;;;;;;16.97;57.53;102109.75;5075029;28;20032;-67
2022/07/02 05:08:40;;;;;;;7.63;2.80;;;;;;;16.99;56.90;102109.50;5070945;28;20410;-67
2022/07/02 05:11:05;;;;;;;2.58;1.80;;;;;;;17.25;59.92;102102.16;5073009;28;20020;-66
2022/07/02 05:13:31;;;;;;;6.85;2.17;;;;;;;17.36;57.87;102099.16;5073361;28;20073;-68
2022/07/02 05:15:56;;;;;;;3.50;1.80;;;;;;;17.64;59.18;102109.22;5073916;28;20375;-66
2022/07/02 05:18:23;;;;;;;4.97;1.73;;;;;;;17.69;56.48;102110.38;5072353;28;20024;-70
2022/07/02 05:20:48;;;;;;;4.22;2.10;;;;;;;17.83;58.07;102106.81;5070566;28;20031;-68
2022/07/02 05:23:13;;;;;;;4.80;2.40;;;;;;;17.80;56.11;102112.13;5078067;28;20028;-66
2022/07/02 05:25:39;;;;;;;4.95;2.30;;;;;;;18.02;57.30;102112.00;5070623;28;20098;-68
2022/07/02 05:28:04;;;;;;;5.10;2.40;;;;;;;18.00;56.45;102108.59;5069409;28;21724;-65
2022/07/02 05:30:29;;;;;;;4.85;2.10;;;;;;;18.12;56.02;102101.66;5071266;28;20025;-66
2022/07/02 05:32:54;;;;;;;4.57;2.08;;;;;;;18.21;55.62;102101.16;5073543;28;20119;-66
2022/07/02 05:35:20;;;;;;;7.30;2.45;;;;;;;18.12;55.21;102112.06;5073446;28;20028;-66
2022/07/02 05:37:45;;;;;;;8.27;2.55;;;;;;;18.24;53.89;102107.06;5070102;28;20032;-67
2022/07/02 05:40:11;;;;;;;4.47;1.83;;;;;;;18.42;54.58;102116.97;5073827;28;20032;-66
2022/07/02 05:42:36;;;;;;;3.35;1.80;;;;;;;18.55;54.19;102115.59;5070048;28;20105;-66
2022/07/02 05:45:02;;;;;;;3.03;1.70;;;;;;;18.59;53.43;102113.94;5072079;28;20464;-68
2022/07/02 05:47:27;;;;;;;3.55;1.60;;;;;;;18.68;53.15;102117.06;5072052;28;20040;-68
2022/07/02 05:49:53;;;;;;;3.45;1.50;;;;;;;18.81;52.81;102116.53;5069661;28;20051;-67
2022/07/02 05:52:19;;;;;;;3.22;1.60;;;;;;;18.88;52.33;102122.75;5072243;28;20039;-67
2022/07/02 05:54:45;;;;;;;3.97;1.90;;;;;;;18.95;52.21;102117.72;5071299;28;20078;-67
2022/07/02 05:57:10;;;;;;;4.57;1.63;;;;;;;19.07;52.58;102120.25;5066063;28;20036;-66
2022/07/02 05:59:36;;;;;;;3.83;1.60;;;;;;;19.09;51.45;102127.28;5071652;28;20082;-67
2022/07/02 06:02:02;;;;;;;4.90;1.80;;;;;;;18.96;49.93;102127.84;5070791;28;20036;-67
2022/07/02 06:04:28;;;;;;;4.47;1.67;;;;;;;19.12;50.97;102117.44;5071889;28;20025;-67
2022/07/02 06:09:37;;;;;;;3.47;1.50;;;;;;;19.24;50.34;102122.81;5073365;28;20158;-67
2022/07/02 06:12:03;;;;;;;3.08;1.33;;;;;;;19.30;49.69;102125.34;5088597;28;20111;-67
2022/07/02 06:14:28;;;;;;;3.00;1.40;;;;;;;19.44;50.23;102121.94;5073144;28;20028;-67
2022/07/02 06:16:53;;;;;;;3.42;1.33;;;;;;;19.49;49.59;102125.63;5073106;28;20032;-67
2022/07/02 06:19:18;;;;;;;5.85;1.50;;;;;;;19.55;49.64;102118.00;5072587;28;20028;-67
2022/07/02 06:21:44;;;;;;;3.45;1.35;;;;;;;19.64;49.33;102132.38;5072861;28;20035;-67
2022/07/02 06:24:11;;;;;;;4.18;1.50;;;;;;;19.64;49.02;102127.59;5073315;28;20057;-68
2022/07/02 06:26:36;;;;;;;4.97;1.50;;;;;;;19.73;48.98;102125.91;5082541;28;20486;-67
2022/07/02 06:29:02;;;;;;;3.72;1.25;;;;;;;19.84;49.05;102127.56;5072236;28;20041;-67
2022/07/02 06:31:27;;;;;;;2.83;1.20;;;;;;;19.96;48.60;102123.59;5071050;28;20052;-67
2022/07/02 06:33:52;;;;;;;3.47;1.40;;;;;;;19.95;48.13;102134.03;5073438;28;20032;-67
2022/07/02 06:36:22;;;;;;;3.72;1.10;;;;;;;20.00;48.53;102130.34;5072111;28;20026;-67
2022/07/02 06:38:49;;;;;;;1.45;1.10;;;;;;;19.96;48.06;102129.22;5072820;28;20657;-67
2022/07/02 06:43:58;;;;;;;3.38;1.08;;;;;;;19.91;47.66;102130.09;5072695;28;20804;-67
2022/07/02 06:46:23;;;;;;;2.92;1.08;;;;;;;19.88;46.72;102127.00;5071730;28;20040;-67
2022/07/02 06:48:48;;;;;;;1.55;0.95;;;;;;;19.88;46.25;102124.19;5072716;28;20368;-67
2022/07/02 06:51:14;;;;;;;2.28;1.10;;;;;;;20.03;47.09;102129.78;5070904;28;20040;-67
2022/07/02 06:53:39;;;;;;;2.40;1.10;;;;;;;20.06;46.34;102121.59;5070936;28;20035;-67
2022/07/02 06:56:04;;;;;;;3.70;1.20;;;;;;;20.13;46.56;102121.31;5086309;28;20024;-67
2022/07/02 06:58:30;;;;;;;4.53;1.23;;;;;;;20.20;46.57;102124.66;5070812;28;20032;-67
2022/07/02 07:00:55;;;;;;;2.30;1.08;;;;;;;20.28;46.11;102112.78;5072469;28;20060;-67
2022/07/02 07:03:20;;;;;;;2.60;1.08;;;;;;;20.28;45.33;102120.41;5071349;28;20024;-67
2022/07/02 07:05:47;;;;;;;3.90;1.10;;;;;;;20.30;45.38;102118.13;5069693;28;20060;-67
2022/07/02 07:08:13;;;;;;;3.35;0.93;;;;;;;20.40;45.34;102125.72;5070577;28;20412;-68
2022/07/02 07:10:38;;;;;;;2.53;1.02;;;;;;;20.42;44.42;102120.63;5072588;28;20016;-67
2022/07/02 07:13:04;;;;;;;1.25;0.73;;;;;;;20.45;44.56;102125.69;5072010;28;20052;-67
2022/07/02 07:15:29;;;;;;;1.50;0.70;;;;;;;20.59;44.24;102121.13;5069728;28;20430;-67
2022/07/02 07:17:54;;;;;;;2.70;0.85;;;;;;;20.63;44.19;102121.38;5070222;28;20056;-67
2022/07/02 07:20:26;;;;;;;2.85;0.93;;;;;;;20.73;43.93;102118.53;5071205;28;20047;-67
2022/07/02 07:22:52;;;;;;;;;;;;;;;20.79;45.73;102126.69;5077315;28;20089;-67
2022/07/02 07:25:17;;;;;;;2.00;0.80;;;;;;;20.91;43.38;102133.94;5073785;28;19920;-67
2022/07/02 07:27:43;;;;;;;2.30;0.93;;;;;;;20.79;42.42;102132.31;5069822;28;20037;-67
2022/07/02 07:30:08;;;;;;;2.13;1.00;;;;;;;20.87;43.59;102130.00;5070124;28;20032;-67
2022/07/02 07:32:33;;;;;;;2.05;0.88;;;;;;;20.98;43.57;102121.16;5074102;28;20075;-67
2022/07/02 07:34:59;;;;;;;1.65;0.80;;;;;;;20.99;42.76;102120.06;5075073;28;20060;-67
2022/07/02 07:37:24;;;;;;;2.00;0.75;;;;;;;21.07;42.84;102118.59;5071822;28;20379;-67
2022/07/02 07:39:49;;;;;;;2.38;0.80;;;;;;;21.13;43.42;102120.22;5071778;28;20111;-67
2022/07/02 07:42:14;;;;;;;2.88;0.80;;;;;;;21.11;43.00;102125.34;5062159;28;20029;-67
2022/07/02 07:44:40;;;;;;;6.15;1.10;;;;;;;21.12;42.76;102129.84;5075188;28;20358;-68
2022/07/02 07:47:05;;;;;;;2.75;0.77;;;;;;;21.11;42.81;102128.16;5070636;28;20117;-67
2022/07/02 07:49:30;;;;;;;0.90;0.55;;;;;;;21.19;42.98;102127.53;5073871;28;20090;-67
2022/07/02 07:51:56;;;;;;;2.67;0.70;;;;;;;21.26;42.86;102125.22;5072154;28;20052;-67
2022/07/02 07:54:21;;;;;;;2.53;0.88;;;;;;;21.23;42.48;102124.97;5071349;28;20407;-67
2022/07/02 07:56:46;;;;;;;2.33;0.80;;;;;;;21.38;42.79;102118.34;5071881;28;20040;-67
2022/07/02 07:59:11;;;;;;;3.63;0.90;;;;;;;21.47;43.08;102120.28;5074053;28;20028;-67
2022/07/02 08:01:37;;;;;;;2.53;0.90;;;;;;;21.41;42.59;102117.78;5070570;28;20495;-67
2022/07/02 08:04:03;;;;;;;3.50;1.08;;;;;;;21.38;42.46;102126.84;5073256;28;20024;-67
2022/07/02 08:06:28;;;;;;;2.63;0.70;;;;;;;21.43;42.46;102113.53;5071916;28;20103;-67
2022/07/02 08:08:53;;;;;;;1.92;0.90;;;;;;;21.53;42.35;102118.22;5068177;28;20115;-67
2022/07/02 08:11:19;;;;;;;2.67;1.00;;;;;;;21.53;42.79;102119.06;5071479;28;20020;-67
2022/07/02 08:13:44;;;;;;;2.60;0.85;;;;;;;21.62;42.35;102116.47;5071203;28;20024;-67
2022/07/02 08:16:09;;;;;;;2.00;0.80;;;;;;;21.65;42.34;102115.84;5071383;28;20024;-67
2022/07/02 08:18:35;;;;;;;2.97;0.82;;;;;;;21.74;42.63;102111.25;5078172;28;20356;-66
2022/07/02 08:21:01;;;;;;;4.28;1.00;;;;;;;21.77;41.77;102121.97;5079300;28;20170;-66
2022/07/02 08:23:26;;;;;;;2.65;0.80;;;;;;;21.74;41.83;102114.06;5071773;28;20098;-66
2022/07/02 08:25:54;;;;;;;2.35;0.93;;;;;;;21.84;42.33;102112.28;5070314;28;20020;-66
2022/07/02 08:28:20;;;;;;;3.50;1.10;;;;;;;21.78;42.19;102109.50;5071958;28;20025;-65
2022/07/02 08:30:46;;;;;;;3.33;0.90;;;;;;;21.88;42.16;102111.38;5065984;28;20043;-66
2022/07/02 08:33:14;;;;;;;5.15;0.80;;;;;;;21.87;42.34;102100.38;5060344;28;20400;-66
2022/07/02 08:35:39;;;;;;;1.65;0.85;;;;;;;21.91;42.07;102099.47;5068427;28;20036;-65
2022/07/02 08:38:04;;;;;;;2.22;0.90;;;;;;;21.96;41.99;102096.59;5066323;28;20025;-67
2022/07/02 08:40:30;;;;;;;2.08;0.80;;;;;;;22.00;42.56;102102.47;5066322;28;20566;-67
2022/07/02 08:42:58;;;;;;;2.20;0.98;;;;;;;22.00;43.10;102100.50;5068951;28;20024;-66
2022/07/02 08:45:26;;;;;;;3.20;1.08;;;;;;;22.09;42.56;102106.34;5070393;28;20103;-67
2022/07/02 08:47:53;;;;;;;1.40;0.70;;;;;;;22.11;42.19;102106.88;5068590;28;20036;-68
2022/07/02 08:50:20;;;;;;;1.42;0.90;;;;;;;22.15;42.39;102102.34;5070917;28;20044;-67
2022/07/02 08:52:47;;;;;;;5.90;1.00;;;;;;;22.20;42.40;102102.25;5069219;28;20016;-67
2022/07/02 08:55:14;;;;;;;2.13;0.80;;;;;;;22.25;42.75;102102.22;5064551;28;20036;-67
2022/07/02 08:57:39;;;;;;;2.20;0.90;;;;;;;22.23;42.33;102090.34;5066060;28;20028;-66
2022/07/02 09:00:06;;;;;;;1.13;0.90;;;;;;;22.26;43.24;102097.41;5070854;28;20021;-67
2022/07/02 09:02:32;;;;;;;2.78;0.70;;;;;;;22.22;42.79;102088.69;5071324;28;20033;-67
2022/07/02 09:04:59;;;;;;;3.47;1.40;;;;;;;22.25;43.35;102096.56;5066040;28;20035;-66
2022/07/02 09:07:25;;;;;;;2.47;1.20;;;;;;;22.33;43.25;102091.38;5070785;28;20044;-67
2022/07/02 09:09:52;;;;;;;4.00;1.10;;;;;;;22.29;42.85;102092.00;5067482;28;20447;-67
2022/07/02 09:12:17;;;;;;;3.30;1.10;;;;;;;22.41;44.46;102087.88;5077207;28;20024;-67
2022/07/02 09:14:43;;;;;;;3.38;0.88;;;;;;;22.42;43.32;102083.91;5069465;28;20388;-67
2022/07/02 09:17:10;;;;;;;2.90;1.40;;;;;;;22.40;42.32;102074.88;5071279;28;20024;-65
2022/07/02 09:19:37;;;;;;;4.38;1.25;;;;;;;22.52;43.04;102075.28;5070287;28;20036;-65
2022/07/02 09:22:04;;;;;;;2.63;0.77;;;;;;;22.58;42.61;102074.06;5069215;28;20070;-68
2022/07/02 09:24:43;;;;;;;4.50;1.00;;;;;;;22.51;42.28;102065.09;5070388;28;20033;-68
2022/07/02 09:27:14;;;;;;;2.17;1.08;;;;;;;22.59;43.20;102064.41;5075075;28;20028;-67
2022/07/02 09:29:52;;;;;;;4.10;0.80;;;;;;;22.58;43.35;102065.56;5074480;28;20052;-67
2022/07/02 09:32:19;;;;;;;3.05;0.98;;;;;;;22.58;42.25;102068.41;5069552;28;20047;-68
2022/07/02 09:34:47;;;;;;;2.80;0.88;;;;;;;22.58;41.85;102059.06;5074012;28;20487;-67
2022/07/02 09:37:24;;;;;;;5.18;0.85;;;;;;;22.59;42.17;102060.75;5073652;28;20040;-68
2022/07/02 09:39:52;;;;;;;3.10;1.00;;;;;;;22.69;42.63;102061.44;5078962;28;20070;-68
2022/07/02 09:42:27;;;;;;;2.08;0.90;;;;;;;22.70;42.44;102051.78;5080312;28;20028;-67
2022/07/02 09:44:53;;;;;;;2.42;1.00;;;;;;;22.74;42.17;102052.03;5069175;28;20103;-67
2022/07/02 09:47:32;;;;;;;3.67;0.88;;;;;;;22.79;42.09;102049.97;5076529;28;20048;-68
2022/07/02 09:50:04;;;;;;;4.00;1.10;;;;;;;22.77;41.44;102046.59;5076016;28;20020;-68
2022/07/02 09:52:30;;;;;;;4.25;1.13;;;;;;;22.80;41.39;102039.50;5070299;28;20029;-70
2022/07/02 09:54:56;;;;;;;2.50;0.90;;;;;;;22.87;41.14;102037.13;5070517;28;20032;-70
2022/07/02 09:57:21;;;;;;;4.13;1.20;;;;;;;22.91;42.27;102028.84;5072290;28;20380;-69
2022/07/02 09:59:46;;;;;;;3.40;1.13;;;;;;;23.00;41.76;102033.53;5069676;28;20089;-69
2022/07/02 10:02:21;;;;;;;7.18;1.30;;;;;;;23.03;41.87;102037.72;5073264;28;20032;-69
2022/07/02 10:04:49;;;;;;;3.63;1.30;;;;;;;23.02;41.37;102036.03;5068217;28;20108;-67
2022/07/02 10:07:14;;;;;;;3.30;1.20;;;;;;;23.12;41.34;102030.22;5069573;28;20150;-68
2022/07/02 10:09:42;;;;;;;4.35;1.40;;;;;;;23.17;41.13;102038.59;5084886;28;20586;-68
2022/07/02 10:12:07;;;;;;;2.42;1.23;;;;;;;23.09;41.22;102030.81;5083123;28;20142;-68
2022/07/02 10:14:36;;;;;;;2.20;0.90;;;;;;;23.05;39.89;102026.94;5069889;28;20489;-67
2022/07/02 10:17:03;;;;;;;4.47;1.00;;;;;;;23.15;40.84;102040.09;5073354;28;20120;-69
2022/07/02 10:19:30;;;;;;;1.85;1.00;;;;;;;23.28;40.76;102022.28;5071416;28;20025;-70
2022/07/02 10:21:58;;;;;;;3.50;1.00;;;;;;;23.30;40.77;102019.13;5071218;28;20032;-69
2022/07/02 10:24:25;;;;;;;3.03;1.13;;;;;;;23.20;41.45;102025.81;5072417;28;20020;-69
2022/07/02 10:26:51;;;;;;;5.03;0.98;;;;;;;23.12;40.17;102012.38;5058724;28;20042;-71
2022/07/02 10:29:17;;;;;;;2.10;0.93;;;;;;;23.03;41.54;102021.59;5085206;28;20489;-71
2022/07/02 10:31:52;;;;;;;3.80;0.88;;;;;;;23.00;41.03;102016.53;5069887;28;20654;-70
2022/07/02 10:34:52;;;;;;;1.60;1.08;;;;;;;22.96;42.21;102015.47;5067183;28;20056;-68
2022/07/02 10:37:17;;;;;;;2.88;0.90;;;;;;;22.99;41.35;102003.53;5066105;28;20103;-68
2022/07/02 10:39:43;;;;;;;4.63;0.80;;;;;;;23.12;40.59;102009.53;5069262;28;20111;-69
2022/07/02 10:42:09;;;;;;;2.95;0.85;;;;;;;23.18;41.34;102011.13;5068918;28;20460;-69
2022/07/02 10:44:38;;;;;;;1.60;0.70;;;;;;;23.22;41.78;102007.34;5073511;28;20044;-69
2022/07/02 10:47:05;;;;;;;5.00;1.10;;;;;;;23.23;39.49;102002.56;5064949;28;20060;-68
2022/07/02 10:49:32;;;;;;;3.47;1.08;;;;;;;23.28;39.67;102011.78;5065533;28;20066;-70
2022/07/02 10:51:58;;;;;;;2.45;0.90;;;;;;;23.18;38.13;102006.28;5073709;28;20491;-69
2022/07/02 10:54:31;;;;;;;2.20;0.80;;;;;;;23.11;38.50;102014.38;5075270;28;20035;-68
2022/07/02 10:56:56;;;;;;;3.13;0.80;;;;;;;23.08;38.72;102002.81;5068034;28;20158;-69
2022/07/02 10:59:26;;;;;;;4.80;0.90;;;;;;;23.15;39.64;101995.59;5070001;28;20111;-69
2022/07/02 11:02:05;;;;;;;2.58;0.85;;;;;;;23.23;39.79;101996.88;5069929;28;20167;-69
2022/07/02 11:04:31;;;;;;;2.15;1.00;;;;;;;23.21;38.77;101991.50;5056837;28;20891;-70
2022/07/02 11:07:07;;;;;;;3.75;1.10;;;;;;;23.30;39.51;102000.13;5069988;28;21007;-70
2022/07/02 11:09:43;;;;;;;4.25;0.90;;;;;;;23.27;37.52;101992.28;5069316;28;20032;-71
2022/07/02 11:12:09;;;;;;;1.30;0.70;;;;;;;23.36;37.70;102004.56;5067299;28;20021;-71
2022/07/02 11:14:34;;;;;;;3.00;0.90;;;;;;;23.44;37.66;101998.16;5070248;28;20031;-68
2022/07/02 11:17:02;;;;;;;1.67;0.90;;;;;;;23.43;37.86;102012.66;5060962;28;20032;-68
2022/07/02 11:23:49;;;;;;;3.47;0.95;;;;;;;23.52;39.15;101991.78;5060565;28;20044;-69
2022/07/02 12:31:11;;;;;;;2.70;1.00;;;;;;;23.88;38.12;101930.69;4946670;28;20078;-73
2022/07/02 13:11:16;;;;;;;3.30;1.20;;;;;;;23.65;37.26;101876.72;4998249;28;20097;-71
2022/07/02 14:09:35;;;;;;;4.05;0.95;;;;;;;24.06;38.28;101838.13;4980739;28;20042;-69
2022/07/02 14:19:43;;;;;;;;;;;;;;;;;;;;;
2022/07/02 14:32:27;;;;;;;1.10;0.60;;;;;;;24.48;36.50;101828.28;4902145;29;20064;-71